createdAt,value
2023-01-20T00:00:37.563Z,17.53
2023-01-20T00:03:05.232Z,20.60
2023-01-20T00:05:32.898Z,24.10
2023-01-20T00:08:00.755Z,16.37
2023-01-20T00:10:28.617Z,21.87
2023-01-20T00:12:58.019Z,17.30
2023-01-20T00:15:26.027Z,14.53
2023-01-20T00:17:53.652Z,19.53
2023-01-20T00:20:21.577Z,17.00
2023-01-20T00:22:49.200Z,19.90
2023-01-20T00:25:17.205Z,26.03
2023-01-20T00:27:45.874Z,34.07
2023-01-20T00:30:15.640Z,22.80
2023-01-20T00:32:44.822Z,32.87
2023-01-20T00:35:13.272Z,18.70
2023-01-20T00:37:41.122Z,38.77
2023-01-20T00:40:09.445Z,16.20
2023-01-20T00:42:37.046Z,20.27
2023-01-20T00:45:05.492Z,22.80
2023-01-20T00:47:35.237Z,26.03
2023-01-20T00:50:03.267Z,22.20
2023-01-20T00:52:30.875Z,18.27
2023-01-20T00:54:58.611Z,32.40
2023-01-20T00:57:28.916Z,18.63
2023-01-20T01:00:04.396Z,19.07
2023-01-20T01:02:35.943Z,36.23
2023-01-20T01:05:09.373Z,18.47
2023-01-20T01:07:37.924Z,25.50
2023-01-20T01:10:13.249Z,14.90
2023-01-20T01:12:44.470Z,21.17
2023-01-20T01:15:14.224Z,17.40
2023-01-20T01:17:44.189Z,15.30
2023-01-20T01:20:15.130Z,16.53
2023-01-20T01:22:43.838Z,24.80
2023-01-20T01:25:17.054Z,23.67
2023-01-20T01:27:45.964Z,24.00
2023-01-20T01:30:14.842Z,22.33
2023-01-20T01:32:47.226Z,20.13
2023-01-20T01:35:17.761Z,17.13
2023-01-20T01:37:46.801Z,18.60
2023-01-20T01:40:15.581Z,21.10
2023-01-20T01:42:43.986Z,19.43
2023-01-20T01:45:25.757Z,21.87
2023-01-20T01:48:02.899Z,19.37
2023-01-20T01:50:36.686Z,21.07
2023-01-20T01:53:04.464Z,17.53
2023-01-20T01:55:35.494Z,20.60
2023-01-20T01:58:04.266Z,18.70
2023-01-20T02:00:31.946Z,19.20
2023-01-20T02:03:00.516Z,18.20
2023-01-20T02:05:30.235Z,15.47
2023-01-20T02:07:59.902Z,20.13
2023-01-20T02:10:27.825Z,18.53
2023-01-20T02:12:55.773Z,19.63
2023-01-20T02:15:26.311Z,18.30
2023-01-20T02:18:05.007Z,23.87
2023-01-20T02:20:37.804Z,19.90
2023-01-20T02:23:10.712Z,15.57
2023-01-20T02:25:56.834Z,18.87
2023-01-20T02:28:58.263Z,21.53
2023-01-20T02:31:36.392Z,14.77
2023-01-20T02:34:08.190Z,18.80
2023-01-20T02:36:41.510Z,17.87
2023-01-20T02:39:12.684Z,14.00
2023-01-20T02:41:59.142Z,14.60
2023-01-20T02:44:32.353Z,27.10
2023-01-20T02:47:01.934Z,16.90
2023-01-20T02:49:33.378Z,13.03
2023-01-20T02:52:03.260Z,16.50
2023-01-20T02:54:32.337Z,18.80
2023-01-20T02:57:01.118Z,12.00
2023-01-20T02:59:31.335Z,15.10
2023-01-20T03:02:02.453Z,18.80
2023-01-20T03:04:37.287Z,17.47
2023-01-20T03:07:05.853Z,15.07
2023-01-20T03:09:36.870Z,13.00
2023-01-20T03:12:10.739Z,13.57
2023-01-20T03:14:38.999Z,16.70
2023-01-20T03:17:06.684Z,16.93
2023-01-20T03:19:36.076Z,14.77
2023-01-20T03:22:04.259Z,17.47
2023-01-20T03:24:33.647Z,19.10
2023-01-20T03:27:01.355Z,14.57
2023-01-20T03:29:30.769Z,18.07
2023-01-20T03:32:00.136Z,14.80
2023-01-20T03:34:29.567Z,18.17
2023-01-20T03:36:59.150Z,17.60
2023-01-20T03:39:26.947Z,14.93
2023-01-20T03:42:01.160Z,14.70
2023-01-20T03:44:34.513Z,13.20
2023-01-20T03:47:17.919Z,14.23
2023-01-20T03:49:47.051Z,15.20
2023-01-20T03:52:18.747Z,16.70
2023-01-20T03:54:54.308Z,18.30
2023-01-20T03:57:24.316Z,17.47
2023-01-20T03:59:52.694Z,17.10
2023-01-20T04:02:20.872Z,19.73
2023-01-20T04:04:50.630Z,14.90
2023-01-20T04:07:21.506Z,16.17
2023-01-20T04:09:52.481Z,16.93
2023-01-20T04:12:20.344Z,16.03
2023-01-20T04:14:48.391Z,16.87
2023-01-20T04:17:16.532Z,18.70
2023-01-20T04:19:44.206Z,18.50
2023-01-20T04:22:15.368Z,21.13
2023-01-20T04:24:46.900Z,18.10
2023-01-20T04:27:14.801Z,17.00
2023-01-20T04:29:42.957Z,18.13
2023-01-20T04:32:11.843Z,17.87
2023-01-20T04:34:39.923Z,20.60
2023-01-20T04:37:08.004Z,17.60
2023-01-20T04:39:35.827Z,20.47
2023-01-20T04:42:06.167Z,18.40
2023-01-20T04:44:33.866Z,19.60
2023-01-20T04:47:01.927Z,18.50
2023-01-20T04:49:29.577Z,19.87
2023-01-20T04:51:57.563Z,19.00
2023-01-20T04:54:25.192Z,20.67
2023-01-20T04:56:52.873Z,26.00
2023-01-20T04:59:22.839Z,20.37
2023-01-20T05:01:50.650Z,19.70
2023-01-20T05:04:18.475Z,19.00
2023-01-20T05:06:46.092Z,23.37
2023-01-20T05:09:15.194Z,20.00
2023-01-20T05:11:43.465Z,19.50
2023-01-20T05:14:11.638Z,19.10
2023-01-20T05:16:40.993Z,20.37
2023-01-20T05:19:08.661Z,21.10
2023-01-20T05:21:36.325Z,21.53
2023-01-20T05:24:04.278Z,20.70
2023-01-20T05:26:32.769Z,18.00
2023-01-20T05:29:00.774Z,20.40
2023-01-20T05:31:28.983Z,21.30
2023-01-20T05:33:58.132Z,21.20
2023-01-20T05:36:28.498Z,20.90
2023-01-20T05:38:56.250Z,19.20
2023-01-20T05:41:23.948Z,19.07
2023-01-20T05:43:53.920Z,20.47
2023-01-20T05:46:21.594Z,18.93
2023-01-20T05:48:49.301Z,20.83
2023-01-20T05:51:18.529Z,21.67
2023-01-20T05:53:46.394Z,20.97
2023-01-20T05:56:15.928Z,20.27
2023-01-20T05:58:44.190Z,21.57
2023-01-20T06:01:13.502Z,22.03
2023-01-20T06:03:41.288Z,21.40
2023-01-20T06:06:09.667Z,22.80
2023-01-20T06:08:39.152Z,22.60
2023-01-20T06:11:06.957Z,24.07
2023-01-20T06:13:35.300Z,22.43
2023-01-20T06:16:04.207Z,24.97
2023-01-20T06:18:34.523Z,20.00
2023-01-20T06:21:02.297Z,21.33
2023-01-20T06:23:30.312Z,20.03
2023-01-20T06:26:03.162Z,21.20
2023-01-20T06:28:32.989Z,22.13
2023-01-20T06:31:04.298Z,22.00
2023-01-20T06:33:32.279Z,23.83
2023-01-20T06:36:00.182Z,20.93
2023-01-20T06:38:29.887Z,21.27
2023-01-20T06:40:57.929Z,21.10
2023-01-20T06:43:27.131Z,20.60
2023-01-20T06:45:54.971Z,21.80
2023-01-20T06:48:22.748Z,22.30
2023-01-20T06:50:50.474Z,20.80
2023-01-20T06:53:18.524Z,24.30
2023-01-20T06:55:54.547Z,22.83
2023-01-20T06:58:22.399Z,19.17
2023-01-20T07:00:51.418Z,22.17
2023-01-20T07:03:19.231Z,22.90
2023-01-20T07:05:54.083Z,22.33
2023-01-20T07:08:21.761Z,21.33
2023-01-20T07:10:49.462Z,21.27
2023-01-20T07:13:17.498Z,21.67
2023-01-20T07:15:45.279Z,23.63
2023-01-20T07:18:14.670Z,21.80
2023-01-20T07:20:43.540Z,20.87
2023-01-20T07:23:11.278Z,21.00
2023-01-20T07:25:39.499Z,20.30
2023-01-20T07:28:07.672Z,19.90
2023-01-20T07:30:35.305Z,20.60
2023-01-20T07:33:03.224Z,20.90
2023-01-20T07:35:32.782Z,22.43
2023-01-20T07:38:00.505Z,21.27
2023-01-20T07:40:28.252Z,18.90
2023-01-20T07:42:56.626Z,20.93
2023-01-20T07:45:24.347Z,21.00
2023-01-20T07:47:52.469Z,20.10
2023-01-20T07:50:20.063Z,19.70
2023-01-20T07:52:49.243Z,20.10
2023-01-20T07:55:17.335Z,20.37
2023-01-20T07:57:45.176Z,21.30
2023-01-20T08:00:13.127Z,20.60
2023-01-20T08:02:40.915Z,20.70
2023-01-20T08:05:08.859Z,22.00
2023-01-20T08:07:36.969Z,21.20
2023-01-20T08:10:06.867Z,21.73
2023-01-20T08:12:34.780Z,22.17
2023-01-20T08:15:02.420Z,21.93
2023-01-20T08:17:30.175Z,23.57
2023-01-20T08:19:57.993Z,21.47
2023-01-20T08:22:26.007Z,20.50
2023-01-20T08:24:53.609Z,21.07
2023-01-20T08:27:22.805Z,22.00
2023-01-20T08:29:50.541Z,20.57
2023-01-20T08:32:40.120Z,20.40
2023-01-20T08:35:08.145Z,21.13
2023-01-20T08:37:36.648Z,20.60
2023-01-20T08:40:06.121Z,21.40
2023-01-20T08:42:35.171Z,20.13
2023-01-20T08:45:02.820Z,21.73
2023-01-20T08:47:31.895Z,21.00
2023-01-20T08:49:59.550Z,21.07
2023-01-20T08:52:27.707Z,19.90
2023-01-20T08:54:55.328Z,20.43
2023-01-20T08:57:25.512Z,20.70
2023-01-20T08:59:55.550Z,20.27
2023-01-20T09:02:24.600Z,21.10
2023-01-20T09:04:54.523Z,21.57
2023-01-20T09:07:22.188Z,21.07
2023-01-20T09:09:50.100Z,21.47
2023-01-20T09:12:17.852Z,22.47
2023-01-20T09:14:45.718Z,22.93
2023-01-20T09:17:14.995Z,20.77
2023-01-20T09:19:42.769Z,20.80
2023-01-20T09:22:10.479Z,19.73
2023-01-20T09:24:38.193Z,21.10
2023-01-20T09:27:05.844Z,21.20
2023-01-20T09:29:33.895Z,20.37
2023-01-20T09:32:01.706Z,22.47
2023-01-20T09:34:31.711Z,20.20
2023-01-20T09:37:20.176Z,21.53
2023-01-20T09:40:05.492Z,21.60
2023-01-20T09:42:53.236Z,22.23
2023-01-20T09:45:25.860Z,23.67
2023-01-20T09:47:56.469Z,24.57
2023-01-20T09:50:59.040Z,22.60
2023-01-20T09:53:34.404Z,22.57
2023-01-20T09:56:03.837Z,23.10
2023-01-20T09:58:34.196Z,24.03
2023-01-20T10:01:08.030Z,23.70
2023-01-20T10:03:38.296Z,23.90
2023-01-20T10:06:11.165Z,22.87
2023-01-20T10:08:49.913Z,23.23
2023-01-20T10:11:30.097Z,24.37
2023-01-20T10:14:03.862Z,25.73
2023-01-20T10:16:34.760Z,23.03
2023-01-20T10:19:03.978Z,23.30
2023-01-20T10:21:37.129Z,24.93
2023-01-20T10:24:09.131Z,23.20
2023-01-20T10:26:39.633Z,24.27
2023-01-20T10:29:10.322Z,24.67
2023-01-20T10:31:40.272Z,23.27
2023-01-20T10:34:12.059Z,23.90
2023-01-20T10:36:43.015Z,25.20
2023-01-20T10:39:14.348Z,28.27
2023-01-20T10:41:44.822Z,28.80
2023-01-20T10:44:13.588Z,26.90
2023-01-20T10:46:49.114Z,26.53
2023-01-20T10:49:35.136Z,24.30
2023-01-20T10:52:11.080Z,27.17
2023-01-20T10:54:42.634Z,25.80
2023-01-20T10:57:12.083Z,24.60
2023-01-20T10:59:44.197Z,24.73
2023-01-20T11:02:16.335Z,25.97
2023-01-20T11:04:44.752Z,25.40
2023-01-20T11:07:18.159Z,23.70
2023-01-20T11:09:47.834Z,25.10
2023-01-20T11:12:17.443Z,27.03
2023-01-20T11:14:45.545Z,27.37
2023-01-20T11:17:15.271Z,25.57
2023-01-20T11:19:50.248Z,24.60
2023-01-20T11:22:23.559Z,25.40
2023-01-20T11:24:54.814Z,26.30
2023-01-20T11:27:25.474Z,24.13
2023-01-20T11:29:56.932Z,24.33
2023-01-20T11:32:29.731Z,24.03
2023-01-20T11:34:58.971Z,23.60
2023-01-20T11:37:35.645Z,24.67
2023-01-20T11:40:16.601Z,26.27
2023-01-20T11:42:47.047Z,25.10
2023-01-20T11:45:25.639Z,25.50
2023-01-20T11:48:07.228Z,26.27
2023-01-20T11:50:36.574Z,25.73
2023-01-20T11:53:18.697Z,26.20
2023-01-20T11:55:49.057Z,24.47
2023-01-20T11:58:18.691Z,25.53
2023-01-20T12:00:46.559Z,27.80
2023-01-20T12:03:35.245Z,28.03
2023-01-20T12:06:05.520Z,25.90
2023-01-20T12:08:41.709Z,26.40
2023-01-20T12:11:10.252Z,24.67
2023-01-20T12:14:01.360Z,25.97
2023-01-20T12:16:33.153Z,24.23
2023-01-20T12:19:05.973Z,27.30
2023-01-20T12:21:35.756Z,25.90
2023-01-20T12:24:08.899Z,25.83
2023-01-20T12:26:36.686Z,26.77
2023-01-20T12:29:06.478Z,26.30
2023-01-20T12:31:35.151Z,26.70
2023-01-20T12:34:04.317Z,28.73
2023-01-20T12:36:49.951Z,26.00
2023-01-20T12:39:34.347Z,26.33
2023-01-20T12:42:21.035Z,25.97
2023-01-20T12:45:04.448Z,26.30
2023-01-20T12:47:38.845Z,24.23
2023-01-20T12:50:15.329Z,32.97
2023-01-20T12:52:49.742Z,27.13
2023-01-20T12:55:23.145Z,27.20
2023-01-20T12:58:04.655Z,26.00
2023-01-20T13:00:38.433Z,25.00
2023-01-20T13:03:36.380Z,26.67
2023-01-20T13:06:21.708Z,27.40
2023-01-20T13:08:52.360Z,27.57
2023-01-20T13:11:24.760Z,24.90
2023-01-20T13:14:00.883Z,27.53
2023-01-20T13:16:33.241Z,25.57
2023-01-20T13:19:06.734Z,26.83
2023-01-20T13:21:35.356Z,26.50
2023-01-20T13:24:04.114Z,26.53
2023-01-20T13:26:33.741Z,26.57
2023-01-20T13:29:02.296Z,26.93
2023-01-20T13:31:34.160Z,27.80
2023-01-20T13:34:31.962Z,25.27
2023-01-20T13:37:14.883Z,25.03
2023-01-20T13:39:42.995Z,25.07
2023-01-20T13:42:25.763Z,25.50
2023-01-20T13:45:08.663Z,25.63
2023-01-20T13:48:06.996Z,25.03
2023-01-20T13:50:38.402Z,25.30
2023-01-20T13:53:25.636Z,27.40
2023-01-20T13:56:25.037Z,27.90
2023-01-20T13:58:53.084Z,26.27
2023-01-20T14:01:20.756Z,27.13
2023-01-20T14:04:02.372Z,25.70
2023-01-20T14:06:33.069Z,26.57
2023-01-20T14:09:01.371Z,27.40
2023-01-20T14:11:29.734Z,27.00
2023-01-20T14:13:58.689Z,26.97
2023-01-20T14:16:27.797Z,28.97
2023-01-20T14:18:56.984Z,27.63
2023-01-20T14:21:25.358Z,26.20
2023-01-20T14:23:54.610Z,27.20
2023-01-20T14:26:24.660Z,27.90
2023-01-20T14:28:52.908Z,27.00
2023-01-20T14:31:34.030Z,27.53
2023-01-20T14:34:04.652Z,25.97
2023-01-20T14:36:33.914Z,26.63
2023-01-20T14:39:04.324Z,27.40
2023-01-20T14:41:36.644Z,26.30
2023-01-20T14:44:04.765Z,27.47
2023-01-20T14:46:33.619Z,27.37
2023-01-20T14:49:02.640Z,25.10
2023-01-20T14:51:30.426Z,27.83
2023-01-20T14:54:17.099Z,25.97
2023-01-20T14:56:49.625Z,27.83
2023-01-20T14:59:19.379Z,27.73
2023-01-20T15:01:51.586Z,27.13
2023-01-20T15:04:19.535Z,26.43
2023-01-20T15:06:52.339Z,24.60
2023-01-20T15:09:30.329Z,26.73
2023-01-20T15:12:16.980Z,25.30
2023-01-20T15:14:57.153Z,25.37
2023-01-20T15:17:25.225Z,27.53
2023-01-20T15:19:52.829Z,27.07
2023-01-20T15:22:21.639Z,27.07
2023-01-20T15:24:50.468Z,27.70
2023-01-20T15:27:25.915Z,26.77
2023-01-20T15:30:01.887Z,25.30
2023-01-20T15:32:29.859Z,25.70
2023-01-20T15:34:57.965Z,29.27
2023-01-20T15:37:25.714Z,27.33
2023-01-20T15:39:54.267Z,26.97
2023-01-20T15:42:23.838Z,27.20
2023-01-20T15:44:51.452Z,26.57
2023-01-20T15:47:25.892Z,27.07
2023-01-20T15:49:53.623Z,28.93
2023-01-20T15:52:21.428Z,27.00
2023-01-20T15:54:49.605Z,28.57
2023-01-20T15:57:17.902Z,27.20
2023-01-20T15:59:49.169Z,24.83
2023-01-20T16:02:18.919Z,26.50
2023-01-20T16:04:48.205Z,28.20
2023-01-20T16:07:17.115Z,27.60
2023-01-20T16:09:46.106Z,25.77
2023-01-20T16:12:16.469Z,27.90
2023-01-20T16:14:44.404Z,27.23
2023-01-20T16:17:13.797Z,27.20
2023-01-20T16:19:42.508Z,27.03
2023-01-20T16:22:13.596Z,28.47
2023-01-20T16:24:41.300Z,26.70
2023-01-20T16:27:15.327Z,29.43
2023-01-20T16:29:43.005Z,31.10
2023-01-20T16:32:10.681Z,27.53
2023-01-20T16:34:38.831Z,28.93
2023-01-20T16:37:07.230Z,28.07
2023-01-20T16:39:36.516Z,28.87
2023-01-20T16:42:06.488Z,30.63
2023-01-20T16:44:34.133Z,30.67
2023-01-20T16:47:01.761Z,27.90
2023-01-20T16:49:29.814Z,27.70
2023-01-20T16:51:57.474Z,26.73
2023-01-20T16:54:25.144Z,27.63
2023-01-20T16:56:54.640Z,29.40
2023-01-20T16:59:23.504Z,28.30
2023-01-20T17:01:51.184Z,28.20
2023-01-20T17:04:19.186Z,26.60
2023-01-20T17:06:46.811Z,27.93
2023-01-20T17:09:14.957Z,28.27
2023-01-20T17:11:43.964Z,28.53
2023-01-20T17:14:13.257Z,27.00
2023-01-20T17:16:41.291Z,29.03
2023-01-20T17:19:10.379Z,28.70
2023-01-20T17:21:38.860Z,27.30
2023-01-20T17:24:07.333Z,29.47
2023-01-20T17:26:37.192Z,28.53
2023-01-20T17:29:06.795Z,28.97
2023-01-20T17:31:37.160Z,27.60
2023-01-20T17:34:05.057Z,27.13
2023-01-20T17:36:34.357Z,28.07
2023-01-20T17:39:02.755Z,27.50
2023-01-20T17:41:30.905Z,25.73
2023-01-20T17:43:58.584Z,26.47
2023-01-20T17:46:27.746Z,26.80
2023-01-20T17:48:58.833Z,26.13
2023-01-20T17:51:27.992Z,27.07
2023-01-20T17:53:56.283Z,28.40
2023-01-20T17:56:24.329Z,26.03
2023-01-20T17:58:52.101Z,27.60
2023-01-20T18:01:20.973Z,26.40
2023-01-20T18:03:49.289Z,26.87
2023-01-20T18:06:20.349Z,26.50
2023-01-20T18:08:52.064Z,25.20
2023-01-20T18:11:21.490Z,24.70
2023-01-20T18:13:50.759Z,25.30
2023-01-20T18:16:19.133Z,23.57
2023-01-20T18:18:48.231Z,25.17
2023-01-20T18:21:16.689Z,24.17
2023-01-20T18:23:46.275Z,25.27
2023-01-20T18:26:17.025Z,25.17
2023-01-20T18:28:47.753Z,27.40
2023-01-20T18:31:17.231Z,26.00
2023-01-20T18:33:48.205Z,26.17
2023-01-20T18:36:17.669Z,23.63
2023-01-20T18:38:49.845Z,25.90
2023-01-20T18:41:18.107Z,26.07
2023-01-20T18:43:45.804Z,25.47
2023-01-20T18:46:13.739Z,25.43
2023-01-20T18:48:42.003Z,26.03
2023-01-20T18:51:10.783Z,25.90
2023-01-20T18:53:38.974Z,25.67
2023-01-20T18:56:09.783Z,24.10
2023-01-20T18:58:38.513Z,25.53
2023-01-20T19:01:06.965Z,24.97
2023-01-20T19:03:34.751Z,25.50
2023-01-20T19:06:06.006Z,24.47
2023-01-20T19:08:33.703Z,26.20
2023-01-20T19:11:01.729Z,24.23
2023-01-20T19:13:31.163Z,24.07
2023-01-20T19:16:00.535Z,24.80
2023-01-20T19:18:28.870Z,23.73
2023-01-20T19:20:56.489Z,26.17
2023-01-20T19:23:24.137Z,24.77
2023-01-20T19:26:00.237Z,23.10
2023-01-20T19:28:28.188Z,20.87
2023-01-20T19:30:57.234Z,21.37
2023-01-20T19:33:25.948Z,21.17
2023-01-20T19:35:53.568Z,21.33
2023-01-20T19:38:21.718Z,21.47
2023-01-20T19:40:49.486Z,21.63
2023-01-20T19:43:17.149Z,23.23
2023-01-20T19:45:45.923Z,22.27
2023-01-20T19:48:15.765Z,23.10
2023-01-20T19:50:44.196Z,22.83
2023-01-20T19:53:11.886Z,23.03
2023-01-20T19:55:39.529Z,23.17
2023-01-20T19:58:07.588Z,22.97
2023-01-20T20:00:35.222Z,23.93
2023-01-20T20:03:06.217Z,22.67
2023-01-20T20:05:40.732Z,23.73
2023-01-20T20:08:08.404Z,25.70
2023-01-20T20:10:41.776Z,23.90
2023-01-20T20:13:09.529Z,23.83
2023-01-20T20:15:37.208Z,23.23
2023-01-20T20:18:06.567Z,21.00
2023-01-20T20:20:34.220Z,22.83
2023-01-20T20:23:03.532Z,20.20
2023-01-20T20:25:31.485Z,21.53
2023-01-20T20:27:59.226Z,22.40
2023-01-20T20:30:26.839Z,21.70
2023-01-20T20:32:54.494Z,22.07
2023-01-20T20:35:22.076Z,20.90
2023-01-20T20:37:49.961Z,22.90
2023-01-20T20:40:19.594Z,20.20
2023-01-20T20:42:48.533Z,21.53
2023-01-20T20:45:16.148Z,22.27
2023-01-20T20:47:44.417Z,20.63
2023-01-20T20:50:13.312Z,21.73
2023-01-20T20:52:41.263Z,19.77
2023-01-20T20:55:12.119Z,20.90
2023-01-20T20:57:41.603Z,19.60
2023-01-20T21:00:10.812Z,20.30
2023-01-20T21:02:39.609Z,18.37
2023-01-20T21:05:07.624Z,18.27
2023-01-20T21:07:35.830Z,18.03
2023-01-20T21:10:04.818Z,18.30
2023-01-20T21:12:32.802Z,19.90
2023-01-20T21:15:01.930Z,19.57
2023-01-20T21:17:29.742Z,19.00
2023-01-20T21:19:57.327Z,18.67
2023-01-20T21:22:25.353Z,17.97
2023-01-20T21:24:52.984Z,17.00
2023-01-20T21:27:21.137Z,17.43
2023-01-20T21:29:48.947Z,17.40
2023-01-20T21:32:17.987Z,16.93
2023-01-20T21:34:45.783Z,17.00
2023-01-20T21:37:13.542Z,16.83
2023-01-20T21:39:41.273Z,15.20
2023-01-20T21:42:09.190Z,15.73
2023-01-20T21:44:36.737Z,16.07
2023-01-20T21:47:05.280Z,15.17
2023-01-20T21:49:52.140Z,14.47
2023-01-20T21:52:38.101Z,15.40
2023-01-20T21:55:07.049Z,15.50
2023-01-20T21:57:34.852Z,15.53
2023-01-20T22:00:03.545Z,14.47
2023-01-20T22:02:40.036Z,14.73
2023-01-20T22:05:09.497Z,14.40
2023-01-20T22:07:38.509Z,12.07
2023-01-20T22:10:07.729Z,12.20
2023-01-20T22:12:35.627Z,12.13
2023-01-20T22:15:04.280Z,12.50
2023-01-20T22:17:32.773Z,13.33
2023-01-20T22:20:00.459Z,12.13
2023-01-20T22:22:29.495Z,11.57
2023-01-20T22:24:59.318Z,12.83
2023-01-20T22:27:27.204Z,11.63
2023-01-20T22:29:54.882Z,11.77
2023-01-20T22:32:22.750Z,11.20
2023-01-20T22:34:50.401Z,13.00
2023-01-20T22:37:18.336Z,13.17
2023-01-20T22:39:48.890Z,12.70
2023-01-20T22:42:16.705Z,12.23
2023-01-20T22:44:44.320Z,13.10
2023-01-20T22:47:12.388Z,13.87
2023-01-20T22:49:39.981Z,13.30
2023-01-20T22:52:07.701Z,13.77
2023-01-20T22:54:35.598Z,13.60
2023-01-20T22:57:04.892Z,12.30
2023-01-20T22:59:32.820Z,13.40
2023-01-20T23:02:00.469Z,11.60
2023-01-20T23:04:28.734Z,12.77
2023-01-20T23:06:56.576Z,11.70
2023-01-20T23:09:24.292Z,12.53
2023-01-20T23:11:51.891Z,12.20
2023-01-20T23:14:41.623Z,12.97
2023-01-20T23:17:09.271Z,12.57
2023-01-20T23:19:36.860Z,13.00
2023-01-20T23:22:04.853Z,14.00
2023-01-20T23:24:32.527Z,13.63
2023-01-20T23:27:00.609Z,11.83
2023-01-20T23:29:30.102Z,12.80
2023-01-20T23:31:57.876Z,13.30
2023-01-20T23:34:25.558Z,13.60
2023-01-20T23:36:53.569Z,12.90
2023-01-20T23:39:21.257Z,13.13
2023-01-20T23:41:49.348Z,12.83
2023-01-20T23:44:16.969Z,12.10
2023-01-20T23:46:46.060Z,12.60
2023-01-20T23:49:13.898Z,12.77
2023-01-20T23:51:41.940Z,11.70
2023-01-20T23:54:10.980Z,11.70
2023-01-20T23:56:39.990Z,11.93
2023-01-20T23:59:08.029Z,12.53
